createdAt,value
2019-04-28T00:02:56.063Z,9.58
2019-04-28T00:17:56.211Z,9.43
2019-04-28T00:32:56.531Z,9.54
2019-04-28T00:47:56.729Z,9.65
2019-04-28T01:02:57.101Z,9.64
2019-04-28T01:17:57.368Z,9.71
2019-04-28T01:32:59.607Z,9.78
2019-04-28T01:48:01.801Z,9.91
2019-04-28T02:03:02.993Z,9.91
2019-04-28T02:18:03.378Z,9.65
2019-04-28T02:33:03.497Z,9.53
2019-04-28T02:48:03.620Z,9.56
2019-04-28T03:03:04.272Z,9.43
2019-04-28T03:18:04.515Z,9.29
2019-04-28T03:33:11.043Z,9.35
2019-04-28T03:48:11.512Z,9.14
2019-04-28T04:03:12.033Z,9.08
2019-04-28T04:18:12.321Z,9.01
2019-04-28T04:33:12.460Z,8.91
2019-04-28T04:48:12.479Z,8.79
2019-04-28T05:03:12.658Z,8.95
2019-04-28T05:18:12.771Z,8.91
2019-04-28T05:33:13.376Z,9.13
2019-04-28T05:48:14.016Z,9.20
2019-04-28T06:03:14.191Z,9.02
2019-04-28T06:18:14.847Z,9.28
2019-04-28T06:33:15.610Z,9.08
2019-04-28T06:48:16.222Z,9.33
2019-04-28T07:03:22.926Z,9.99
2019-04-28T07:18:21.920Z,9.90
2019-04-28T07:33:22.457Z,10.20
2019-04-28T07:48:23.153Z,10.26
2019-04-28T08:03:23.806Z,9.78
2019-04-28T08:18:24.167Z,9.47
2019-04-28T08:33:24.253Z,9.79
2019-04-28T08:48:24.817Z,10.30
2019-04-28T09:03:24.665Z,10.96
2019-04-28T09:18:24.927Z,11.46
2019-04-28T09:33:25.019Z,12.46
2019-04-28T09:48:25.314Z,13.12
2019-04-28T10:03:25.462Z,13.03
2019-04-28T10:18:25.787Z,12.37
2019-04-28T10:33:27.231Z,12.90
2019-04-28T10:48:27.627Z,13.07
2019-04-28T11:03:27.777Z,13.25
2019-04-28T11:18:28.205Z,15.36
2019-04-28T11:33:28.340Z,15.01
2019-04-28T11:48:28.731Z,14.81
2019-04-28T12:03:28.770Z,13.87
2019-04-28T12:18:29.649Z,13.69
2019-04-28T12:33:29.744Z,13.96
2019-04-28T12:48:32.683Z,13.41
2019-04-28T13:03:33.318Z,13.01
2019-04-28T13:18:33.733Z,13.28
2019-04-28T13:33:33.924Z,13.70
2019-04-28T13:48:34.243Z,14.84
2019-04-28T14:03:34.465Z,16.12
2019-04-28T14:18:34.650Z,15.74
2019-04-28T14:33:34.872Z,16.14
2019-04-28T14:48:35.235Z,15.31
2019-04-28T15:03:35.404Z,15.39
2019-04-28T15:18:35.586Z,15.27
2019-04-28T15:33:35.854Z,15.69
2019-04-28T15:48:36.015Z,17.21
2019-04-28T16:03:36.264Z,17.07
2019-04-28T16:18:36.415Z,16.94
2019-04-28T16:33:36.508Z,16.11
2019-04-28T16:48:36.937Z,15.43
2019-04-28T17:03:38.532Z,14.80
2019-04-28T17:18:56.628Z,14.25
2019-04-28T17:33:58.486Z,13.63
2019-04-28T17:48:59.107Z,13.29
2019-04-28T18:03:59.359Z,12.57
2019-04-28T18:21:10.391Z,11.80
2019-04-28T18:36:10.607Z,11.47
2019-04-28T18:51:10.755Z,11.10
2019-04-28T19:06:10.881Z,10.82
2019-04-28T19:21:11.121Z,10.32
2019-04-28T19:36:11.335Z,10.40
2019-04-28T19:51:11.529Z,9.90
2019-04-28T20:06:11.673Z,9.86
2019-04-28T20:21:11.904Z,9.58
2019-04-28T20:36:13.100Z,9.57
2019-04-28T20:51:13.311Z,9.56
2019-04-28T21:06:13.523Z,9.29
2019-04-28T21:21:13.806Z,9.48
2019-04-28T21:36:14.142Z,9.31
2019-04-28T21:51:14.352Z,9.15
2019-04-28T22:06:14.659Z,9.29
2019-04-28T22:21:14.980Z,9.17
2019-04-28T22:36:15.265Z,9.15
2019-04-28T22:51:15.485Z,9.02
2019-04-28T23:06:15.795Z,8.86
2019-04-28T23:21:15.916Z,9.15
2019-04-28T23:36:16.003Z,9.17
2019-04-28T23:51:16.135Z,8.95
